createdAt,value
2022-12-18T00:02:16.053Z,-2.40
2022-12-18T00:06:22.159Z,-2.40
2022-12-18T00:10:25.386Z,-2.40
2022-12-18T00:15:02.480Z,-2.40
2022-12-18T00:19:06.474Z,-2.40
2022-12-18T00:23:10.949Z,-2.40
2022-12-18T00:27:14.010Z,-2.40
2022-12-18T00:31:19.304Z,-2.40
2022-12-18T00:35:22.504Z,-2.40
2022-12-18T00:40:00.861Z,-2.30
2022-12-18T00:44:03.984Z,-2.30
2022-12-18T00:48:07.733Z,-2.20
2022-12-18T00:52:20.245Z,-2.20
2022-12-18T00:56:52.456Z,-2.20
2022-12-18T01:00:55.465Z,-2.30
2022-12-18T01:04:58.913Z,-2.30
2022-12-18T01:09:01.955Z,-2.40
2022-12-18T01:13:06.358Z,-2.50
2022-12-18T01:17:09.389Z,-2.60
2022-12-18T01:21:14.002Z,-2.60
2022-12-18T01:25:48.211Z,-2.70
2022-12-18T01:29:52.951Z,-2.70
2022-12-18T01:34:24.063Z,-2.70
2022-12-18T01:38:27.073Z,-2.70
2022-12-18T01:42:30.078Z,-2.60
2022-12-18T01:46:34.705Z,-2.50
2022-12-18T01:50:40.349Z,-2.40
2022-12-18T01:54:43.601Z,-2.30
2022-12-18T01:58:58.466Z,-2.30
2022-12-18T02:03:02.954Z,-2.30
2022-12-18T02:07:44.539Z,-2.20
2022-12-18T02:11:53.687Z,-2.20
2022-12-18T02:16:12.649Z,-2.10
2022-12-18T02:20:41.482Z,-2.00
2022-12-18T02:24:58.567Z,-2.00
2022-12-18T02:29:07.424Z,-2.00
2022-12-18T02:33:13.307Z,-2.00
2022-12-18T02:37:46.694Z,-2.00
2022-12-18T02:41:50.986Z,-2.00
2022-12-18T02:45:58.430Z,-2.00
2022-12-18T02:50:33.039Z,-2.00
2022-12-18T02:55:10.133Z,-2.00
2022-12-18T02:59:16.089Z,-2.00
2022-12-18T03:03:27.474Z,-2.00
2022-12-18T03:07:40.220Z,-1.90
2022-12-18T03:12:21.152Z,-1.90
2022-12-18T03:16:29.321Z,-2.00
2022-12-18T03:20:36.364Z,-1.90
2022-12-18T03:24:40.677Z,-1.80
2022-12-18T03:28:49.497Z,-1.80
2022-12-18T03:33:00.558Z,-1.80
2022-12-18T03:37:08.645Z,-1.80
2022-12-18T03:41:20.627Z,-1.80
2022-12-18T03:45:28.768Z,-1.90
2022-12-18T03:49:38.760Z,-1.90
2022-12-18T03:53:49.111Z,-1.90
2022-12-18T03:57:54.545Z,-2.00
2022-12-18T04:02:00.209Z,-2.00
2022-12-18T04:06:04.311Z,-2.00
2022-12-18T04:10:14.565Z,-2.00
2022-12-18T04:14:18.452Z,-2.00
2022-12-18T04:18:21.798Z,-2.00
2022-12-18T04:22:24.891Z,-2.00
2022-12-18T04:26:29.509Z,-2.10
2022-12-18T04:30:32.737Z,-2.10
2022-12-18T04:34:35.760Z,-2.10
2022-12-18T04:38:39.414Z,-2.10
2022-12-18T04:42:43.853Z,-2.00
2022-12-18T04:46:51.439Z,-2.00
2022-12-18T04:50:54.601Z,-1.90
2022-12-18T04:55:09.842Z,-1.90
2022-12-18T04:59:14.671Z,-2.00
2022-12-18T05:03:17.958Z,-2.00
2022-12-18T05:07:21.165Z,-2.00
2022-12-18T05:11:24.399Z,-2.00
2022-12-18T05:15:31.503Z,-2.00
2022-12-18T05:19:34.605Z,-2.10
2022-12-18T05:23:38.703Z,-2.00
2022-12-18T05:27:42.107Z,-2.00
2022-12-18T05:31:46.689Z,-1.90
2022-12-18T05:35:53.086Z,-1.90
2022-12-18T05:39:56.371Z,-1.80
2022-12-18T05:44:00.086Z,-1.80
2022-12-18T05:48:04.654Z,-1.90
2022-12-18T05:52:07.945Z,-1.90
2022-12-18T05:56:15.686Z,-1.90
2022-12-18T06:00:19.166Z,-2.00
2022-12-18T06:04:23.755Z,-2.00
2022-12-18T06:08:35.020Z,-2.10
2022-12-18T06:12:38.825Z,-2.10
2022-12-18T06:16:41.938Z,-2.10
2022-12-18T06:20:46.740Z,-2.10
2022-12-18T06:24:49.858Z,-2.20
2022-12-18T06:28:53.392Z,-2.20
2022-12-18T06:32:57.095Z,-2.20
2022-12-18T06:37:01.583Z,-2.20
2022-12-18T06:41:08.964Z,-2.20
2022-12-18T06:45:13.213Z,-2.30
2022-12-18T06:49:17.059Z,-2.30
2022-12-18T06:53:21.614Z,-2.30
2022-12-18T06:57:24.739Z,-2.30
2022-12-18T07:01:27.874Z,-2.30
2022-12-18T07:05:30.972Z,-2.30
2022-12-18T07:09:35.646Z,-2.30
2022-12-18T07:13:39.139Z,-2.40
2022-12-18T07:17:42.410Z,-2.30
2022-12-18T07:21:45.497Z,-2.30
2022-12-18T07:25:50.190Z,-2.30
2022-12-18T07:29:54.762Z,-2.30
2022-12-18T07:33:58.340Z,-2.20
2022-12-18T07:38:01.378Z,-2.10
2022-12-18T07:42:24.423Z,-2.10
2022-12-18T07:46:27.941Z,-2.00
2022-12-18T07:50:31.018Z,-2.10
2022-12-18T07:54:34.160Z,-2.10
2022-12-18T07:58:39.108Z,-2.00
2022-12-18T08:02:42.442Z,-2.00
2022-12-18T08:06:48.026Z,-2.00
2022-12-18T08:10:51.506Z,-1.90
2022-12-18T08:14:55.909Z,-1.80
2022-12-18T08:18:59.035Z,-1.70
2022-12-18T08:23:02.056Z,-1.60
2022-12-18T08:31:32.168Z,-1.40
2022-12-18T08:35:44.052Z,-1.40
2022-12-18T08:39:48.876Z,-1.40
2022-12-18T08:44:09.806Z,-1.30
2022-12-18T08:48:19.179Z,-1.10
2022-12-18T08:52:25.122Z,-1.10
2022-12-18T08:56:28.183Z,-1.00
2022-12-18T09:00:33.469Z,-1.00
2022-12-18T09:04:37.942Z,-1.00
2022-12-18T09:08:41.345Z,-0.90
2022-12-18T09:12:44.668Z,-0.90
2022-12-18T09:16:47.747Z,-0.90
2022-12-18T09:20:53.713Z,-0.90
2022-12-18T09:24:56.749Z,-0.80
2022-12-18T09:28:59.916Z,-0.70
2022-12-18T09:33:03.157Z,-0.80
2022-12-18T09:37:08.369Z,-0.70
2022-12-18T09:41:27.447Z,-0.60
2022-12-18T09:45:33.396Z,-0.50
2022-12-18T09:49:39.525Z,-0.60
2022-12-18T09:53:47.748Z,-0.50
2022-12-18T09:57:55.502Z,-0.40
2022-12-18T10:01:59.067Z,-0.40
2022-12-18T10:06:09.643Z,-0.40
2022-12-18T10:10:25.156Z,-0.30
2022-12-18T10:14:36.142Z,-0.20
2022-12-18T10:19:00.190Z,-0.20
2022-12-18T10:23:10.525Z,-0.10
2022-12-18T10:27:18.022Z,-0.10
2022-12-18T10:31:24.532Z,-0.10
2022-12-18T10:35:29.129Z,-0.10
2022-12-18T10:39:32.225Z,-0.10
2022-12-18T10:43:38.049Z,0.00
2022-12-18T10:47:45.755Z,0.00
2022-12-18T10:51:49.207Z,-0.10
2022-12-18T10:55:54.424Z,-0.20
2022-12-18T11:00:00.577Z,-0.10
2022-12-18T11:04:10.621Z,0.00
2022-12-18T11:08:23.815Z,0.20
2022-12-18T11:12:31.600Z,0.10
2022-12-18T11:17:03.235Z,0.10
2022-12-18T11:21:10.423Z,0.00
2022-12-18T11:25:37.147Z,0.10
2022-12-18T11:29:46.536Z,0.20
2022-12-18T11:34:27.555Z,0.30
2022-12-18T11:38:26.668Z,0.30
2022-12-18T11:42:37.745Z,0.50
2022-12-18T11:46:47.735Z,0.50
2022-12-18T11:50:54.509Z,0.40
2022-12-18T11:55:01.112Z,0.30
2022-12-18T11:59:15.994Z,0.10
2022-12-18T12:03:41.439Z,0.10
2022-12-18T12:07:54.340Z,0.10
2022-12-18T12:12:09.525Z,0.00
2022-12-18T12:16:20.565Z,-0.10
2022-12-18T12:20:36.120Z,0.00
2022-12-18T12:24:57.039Z,0.10
2022-12-18T12:29:14.347Z,0.10
2022-12-18T12:33:32.965Z,0.10
2022-12-18T12:37:45.049Z,0.10
2022-12-18T12:42:07.253Z,0.10
2022-12-18T12:46:12.718Z,0.00
2022-12-18T12:50:18.654Z,-0.10
2022-12-18T12:54:24.787Z,-0.10
2022-12-18T12:58:39.160Z,0.00
2022-12-18T13:02:50.632Z,-0.10
2022-12-18T13:07:02.314Z,0.00
2022-12-18T13:11:37.270Z,0.00
2022-12-18T13:20:13.255Z,0.20
2022-12-18T13:24:25.376Z,0.10
2022-12-18T13:28:53.329Z,-0.10
2022-12-18T13:38:26.254Z,-0.50
2022-12-18T13:43:00.226Z,-0.70
2022-12-18T13:47:04.756Z,-0.80
2022-12-18T13:51:10.254Z,-0.90
2022-12-18T13:55:20.986Z,-1.00
2022-12-18T13:59:27.256Z,-1.00
2022-12-18T14:03:31.749Z,-1.10
2022-12-18T14:07:45.091Z,-1.10
2022-12-18T14:11:53.897Z,-1.20
2022-12-18T14:15:58.666Z,-1.30
2022-12-18T14:20:02.886Z,-1.40
2022-12-18T14:24:09.109Z,-1.40
2022-12-18T14:28:17.791Z,-1.50
2022-12-18T14:32:22.273Z,-1.70
2022-12-18T14:36:27.041Z,-1.90
2022-12-18T14:40:30.196Z,-2.00
2022-12-18T14:44:50.635Z,-2.10
2022-12-18T14:48:59.018Z,-2.30
2022-12-18T14:53:02.239Z,-2.40
2022-12-18T14:57:08.643Z,-2.50
2022-12-18T15:01:34.976Z,-2.60
2022-12-18T15:05:38.668Z,-2.80
2022-12-18T15:09:43.818Z,-2.90
2022-12-18T15:13:46.984Z,-3.00
2022-12-18T15:18:00.592Z,-3.10
2022-12-18T15:22:06.617Z,-3.20
2022-12-18T15:26:12.054Z,-3.30
2022-12-18T15:30:21.331Z,-3.40
2022-12-18T15:34:26.343Z,-3.50
2022-12-18T15:38:30.059Z,-3.60
2022-12-18T15:42:50.493Z,-3.70
2022-12-18T15:46:53.750Z,-3.80
2022-12-18T15:50:59.591Z,-3.90
2022-12-18T15:55:20.060Z,-3.90
2022-12-18T15:59:23.715Z,-4.00
2022-12-18T16:03:26.883Z,-4.10
2022-12-18T16:07:31.452Z,-4.20
2022-12-18T16:11:43.038Z,-4.30
2022-12-18T16:15:46.170Z,-4.30
2022-12-18T16:19:49.390Z,-4.40
2022-12-18T16:23:53.878Z,-4.40
2022-12-18T16:27:58.033Z,-4.40
2022-12-18T16:32:02.377Z,-4.40
2022-12-18T16:36:06.204Z,-4.40
2022-12-18T16:40:13.276Z,-4.40
2022-12-18T16:44:16.800Z,-4.40
2022-12-18T16:48:19.858Z,-4.50
2022-12-18T16:52:23.049Z,-4.50
2022-12-18T16:56:27.623Z,-4.60
2022-12-18T17:00:30.625Z,-4.60
2022-12-18T17:04:33.840Z,-4.60
2022-12-18T17:08:37.156Z,-4.60
2022-12-18T17:12:42.565Z,-4.60
2022-12-18T17:16:47.124Z,-4.60
2022-12-18T17:20:50.266Z,-4.60
2022-12-18T17:24:53.444Z,-4.70
2022-12-18T17:28:59.183Z,-4.70
2022-12-18T17:33:07.616Z,-4.70
2022-12-18T17:37:10.863Z,-4.80
2022-12-18T17:41:14.149Z,-4.80
2022-12-18T17:45:18.755Z,-4.80
2022-12-18T17:49:21.784Z,-4.80
2022-12-18T17:53:24.977Z,-4.80
2022-12-18T17:57:28.077Z,-4.80
2022-12-18T18:01:32.689Z,-4.80
2022-12-18T18:05:35.936Z,-4.80
2022-12-18T18:09:39.049Z,-4.80
2022-12-18T18:14:04.889Z,-4.80
2022-12-18T18:18:18.136Z,-4.80
2022-12-18T18:22:23.573Z,-4.80
2022-12-18T18:26:29.362Z,-4.70
2022-12-18T18:30:33.290Z,-4.70
2022-12-18T18:34:38.118Z,-4.70
2022-12-18T18:38:46.700Z,-4.70
2022-12-18T18:42:51.529Z,-4.70
2022-12-18T18:46:56.567Z,-4.60
2022-12-18T18:51:02.833Z,-4.50
2022-12-18T18:55:22.018Z,-4.50
2022-12-18T18:59:31.484Z,-4.40
2022-12-18T19:03:35.333Z,-4.30
2022-12-18T19:07:40.096Z,-4.30
2022-12-18T19:12:00.687Z,-4.20
2022-12-18T19:16:05.853Z,-4.20
2022-12-18T19:20:10.536Z,-4.20
2022-12-18T19:24:17.152Z,-4.10
2022-12-18T19:28:22.499Z,-4.10
2022-12-18T19:32:26.328Z,-4.10
2022-12-18T19:36:32.036Z,-4.00
2022-12-18T19:40:36.714Z,-3.90
2022-12-18T19:44:39.826Z,-3.80
2022-12-18T19:48:44.332Z,-3.80
2022-12-18T19:52:47.793Z,-3.70
2022-12-18T19:56:52.993Z,-3.70
2022-12-18T20:00:59.059Z,-3.70
2022-12-18T20:05:02.598Z,-3.60
2022-12-18T20:09:07.315Z,-3.60
2022-12-18T20:13:11.776Z,-3.60
2022-12-18T20:17:18.117Z,-3.50
2022-12-18T20:21:25.325Z,-3.40
2022-12-18T20:25:28.570Z,-3.40
2022-12-18T20:29:33.326Z,-3.40
2022-12-18T20:33:37.268Z,-3.40
2022-12-18T20:37:46.118Z,-3.30
2022-12-18T20:41:53.259Z,-3.30
2022-12-18T20:46:04.085Z,-3.40
2022-12-18T20:50:08.216Z,-3.50
2022-12-18T20:54:12.034Z,-3.50
2022-12-18T20:58:15.214Z,-3.50
2022-12-18T21:02:24.337Z,-3.50
2022-12-18T21:06:27.909Z,-3.50
2022-12-18T21:10:30.992Z,-3.50
2022-12-18T21:14:34.060Z,-3.40
2022-12-18T21:18:38.486Z,-3.40
2022-12-18T21:22:41.800Z,-3.30
2022-12-18T21:26:46.438Z,-3.30
2022-12-18T21:30:50.507Z,-3.30
2022-12-18T21:34:54.965Z,-3.30
2022-12-18T21:38:59.236Z,-3.30
2022-12-18T21:43:17.672Z,-3.20
2022-12-18T21:47:22.993Z,-3.20
2022-12-18T21:51:27.819Z,-3.20
2022-12-18T21:55:31.041Z,-3.20
2022-12-18T21:59:36.354Z,-3.10
2022-12-18T22:03:39.500Z,-3.10
2022-12-18T22:07:44.097Z,-3.10
2022-12-18T22:11:47.628Z,-3.10
2022-12-18T22:15:50.708Z,-3.00
2022-12-18T22:19:53.824Z,-3.00
2022-12-18T22:23:59.774Z,-2.90
2022-12-18T22:28:20.193Z,-2.90
2022-12-18T22:32:31.235Z,-2.90
2022-12-18T22:36:39.423Z,-2.90
2022-12-18T22:40:43.812Z,-2.80
2022-12-18T22:44:47.080Z,-2.80
2022-12-18T22:48:51.393Z,-2.80
2022-12-18T22:52:54.465Z,-2.80
2022-12-18T22:57:04.859Z,-2.80
2022-12-18T23:01:09.869Z,-2.80
2022-12-18T23:05:12.941Z,-2.70
2022-12-18T23:09:17.308Z,-2.70
2022-12-18T23:13:21.767Z,-2.70
2022-12-18T23:17:25.113Z,-2.60
2022-12-18T23:21:28.178Z,-2.60
2022-12-18T23:25:32.393Z,-2.50
2022-12-18T23:29:37.563Z,-2.50
2022-12-18T23:33:40.845Z,-2.50
2022-12-18T23:38:00.462Z,-2.50
2022-12-18T23:42:03.979Z,-2.50
2022-12-18T23:46:13.543Z,-2.50
2022-12-18T23:50:16.775Z,-2.50
2022-12-18T23:54:30.172Z,-2.40
2022-12-18T23:58:37.902Z,-2.40
